sensor_id;sensor_type;location;lat;lon;timestamp;pressure;altitude;pressure_sealevel;temperature
82636;BMP280;72317;37.280;-121.948;2024-03-25T00:04:19;98662.25;;;16.82
82636;BMP280;72317;37.280;-121.948;2024-03-25T00:09:20;98712.13;;;16.81
82636;BMP280;72317;37.280;-121.948;2024-03-25T00:14:21;98668.41;;;16.64
82636;BMP280;72317;37.280;-121.948;2024-03-25T00:19:22;98618.41;;;16.51
82636;BMP280;72317;37.280;-121.948;2024-03-25T00:24:23;98546.41;;;16.29
82636;BMP280;72317;37.280;-121.948;2024-03-25T00:29:23;98547.56;;;16.19
82636;BMP280;72317;37.280;-121.948;2024-03-25T00:34:24;98532.97;;;16.62
82636;BMP280;72317;37.280;-121.948;2024-03-25T00:39:25;98572.47;;;16.32
82636;BMP280;72317;37.280;-121.948;2024-03-25T00:44:26;98562.28;;;16.09
82636;BMP280;72317;37.280;-121.948;2024-03-25T00:49:27;98501.09;;;15.88
82636;BMP280;72317;37.280;-121.948;2024-03-25T00:54:28;98495.78;;;16.21
82636;BMP280;72317;37.280;-121.948;2024-03-25T00:59:28;98514.28;;;15.77
82636;BMP280;72317;37.280;-121.948;2024-03-25T01:04:29;98576.72;;;15.38
82636;BMP280;72317;37.280;-121.948;2024-03-25T01:09:30;98567.22;;;15.65
82636;BMP280;72317;37.280;-121.948;2024-03-25T01:14:31;98576.72;;;15.38
82636;BMP280;72317;37.280;-121.948;2024-03-25T01:19:31;98579.78;;;15.19
82636;BMP280;72317;37.280;-121.948;2024-03-25T01:24:32;98603.91;;;15.13
82636;BMP280;72317;37.280;-121.948;2024-03-25T01:29:33;98588.38;;;15.35
82636;BMP280;72317;37.280;-121.948;2024-03-25T01:34:34;98746.34;;;15.27
82636;BMP280;72317;37.280;-121.948;2024-03-25T01:39:35;98779.91;;;15.26
82636;BMP280;72317;37.280;-121.948;2024-03-25T01:44:35;98770.00;;;14.89
82636;BMP280;72317;37.280;-121.948;2024-03-25T01:49:36;98789.78;;;14.73
82636;BMP280;72317;37.280;-121.948;2024-03-25T01:54:37;98852.13;;;14.62
82636;BMP280;72317;37.280;-121.948;2024-03-25T01:59:39;98897.41;;;14.67
82636;BMP280;72317;37.280;-121.948;2024-03-25T02:04:41;98874.66;;;14.30
82636;BMP280;72317;37.280;-121.948;2024-03-25T02:09:43;98828.84;;;14.30
82636;BMP280;72317;37.280;-121.948;2024-03-25T02:14:44;98718.09;;;14.15
82636;BMP280;72317;37.280;-121.948;2024-03-25T02:19:45;98635.69;;;14.05
82636;BMP280;72317;37.280;-121.948;2024-03-25T02:24:46;98543.47;;;13.79
82636;BMP280;72317;37.280;-121.948;2024-03-25T02:29:50;98425.06;;;13.79
82636;BMP280;72317;37.280;-121.948;2024-03-25T02:34:51;98325.09;;;13.90
82636;BMP280;72317;37.280;-121.948;2024-03-25T02:39:58;98271.31;;;13.68
82636;BMP280;72317;37.280;-121.948;2024-03-25T02:44:59;98286.13;;;13.73
82636;BMP280;72317;37.280;-121.948;2024-03-25T02:50:00;98235.06;;;13.51
82636;BMP280;72317;37.280;-121.948;2024-03-25T02:55:01;98157.00;;;13.42
82636;BMP280;72317;37.280;-121.948;2024-03-25T03:00:02;98208.91;;;13.51
82636;BMP280;72317;37.280;-121.948;2024-03-25T03:05:03;98140.50;;;13.30
82636;BMP280;72317;37.280;-121.948;2024-03-25T03:10:04;98103.03;;;13.45
82636;BMP280;72317;37.280;-121.948;2024-03-25T03:15:05;98103.38;;;13.47
82636;BMP280;72317;37.280;-121.948;2024-03-25T03:20:06;98045.06;;;13.35
82636;BMP280;72317;37.280;-121.948;2024-03-25T03:25:07;97970.59;;;13.05
82636;BMP280;72317;37.280;-121.948;2024-03-25T03:30:08;97956.00;;;13.24
82636;BMP280;72317;37.280;-121.948;2024-03-25T03:35:09;97933.13;;;13.10
82636;BMP280;72317;37.280;-121.948;2024-03-25T03:40:10;97916.88;;;13.23
82636;BMP280;72317;37.280;-121.948;2024-03-25T03:45:11;97884.88;;;13.07
82636;BMP280;72317;37.280;-121.948;2024-03-25T03:50:12;97819.34;;;13.04
82636;BMP280;72317;37.280;-121.948;2024-03-25T03:55:13;97767.50;;;12.76
82636;BMP280;72317;37.280;-121.948;2024-03-25T04:00:14;97678.25;;;12.90
82636;BMP280;72317;37.280;-121.948;2024-03-25T04:05:14;97668.13;;;12.76
82636;BMP280;72317;37.280;-121.948;2024-03-25T04:10:15;97544.13;;;12.68
82636;BMP280;72317;37.280;-121.948;2024-03-25T04:15:16;97514.69;;;12.74
82636;BMP280;72317;37.280;-121.948;2024-03-25T04:20:17;97532.31;;;12.75
82636;BMP280;72317;37.280;-121.948;2024-03-25T04:25:18;97536.97;;;12.47
82636;BMP280;72317;37.280;-121.948;2024-03-25T04:30:18;97526.81;;;12.33
82636;BMP280;72317;37.280;-121.948;2024-03-25T04:35:19;97540.44;;;12.29
82636;BMP280;72317;37.280;-121.948;2024-03-25T04:40:20;97547.56;;;12.32
82636;BMP280;72317;37.280;-121.948;2024-03-25T04:45:21;97564.88;;;12.22
82636;BMP280;72317;37.280;-121.948;2024-03-25T04:50:22;97555.19;;;12.16
82636;BMP280;72317;37.280;-121.948;2024-03-25T04:55:23;97591.16;;;11.87
82636;BMP280;72317;37.280;-121.948;2024-03-25T05:00:23;97586.44;;;12.00
82636;BMP280;72317;37.280;-121.948;2024-03-25T05:05:24;97591.34;;;11.93
82636;BMP280;72317;37.280;-121.948;2024-03-25T05:10:25;97609.75;;;11.72
82636;BMP280;72317;37.280;-121.948;2024-03-25T05:15:25;97635.59;;;11.57
82636;BMP280;72317;37.280;-121.948;2024-03-25T05:20:26;97683.16;;;11.44
82636;BMP280;72317;37.280;-121.948;2024-03-25T05:25:27;97687.69;;;11.47
82636;BMP280;72317;37.280;-121.948;2024-03-25T05:30:28;97805.19;;;11.14
82636;BMP280;72317;37.280;-121.948;2024-03-25T05:35:28;97893.91;;;11.03
82636;BMP280;72317;37.280;-121.948;2024-03-25T05:40:29;97899.81;;;11.24
82636;BMP280;72317;37.280;-121.948;2024-03-25T05:45:30;97858.31;;;11.28
82636;BMP280;72317;37.280;-121.948;2024-03-25T05:50:31;97859.81;;;11.16
82636;BMP280;72317;37.280;-121.948;2024-03-25T05:55:31;97870.41;;;11.20
82636;BMP280;72317;37.280;-121.948;2024-03-25T06:00:32;97768.84;;;11.47
82636;BMP280;72317;37.280;-121.948;2024-03-25T06:05:33;97806.50;;;11.09
82636;BMP280;72317;37.280;-121.948;2024-03-25T06:10:37;97823.22;;;11.01
82636;BMP280;72317;37.280;-121.948;2024-03-25T06:15:38;97802.75;;;10.94
82636;BMP280;72317;37.280;-121.948;2024-03-25T06:20:39;97816.84;;;11.07
82636;BMP280;72317;37.280;-121.948;2024-03-25T06:25:39;97826.94;;;11.03
82636;BMP280;72317;37.280;-121.948;2024-03-25T06:30:40;97816.31;;;11.12
82636;BMP280;72317;37.280;-121.948;2024-03-25T06:35:44;97791.28;;;10.93
82636;BMP280;72317;37.280;-121.948;2024-03-25T06:40:47;97793.19;;;11.06
82636;BMP280;72317;37.280;-121.948;2024-03-25T06:45:48;97846.13;;;10.89
82636;BMP280;72317;37.280;-121.948;2024-03-25T06:50:53;97921.22;;;10.98
82636;BMP280;72317;37.280;-121.948;2024-03-25T06:55:58;97950.28;;;10.87
82636;BMP280;72317;37.280;-121.948;2024-03-25T07:01:07;97914.06;;;11.08
82636;BMP280;72317;37.280;-121.948;2024-03-25T07:06:08;97937.31;;;10.98
82636;BMP280;72317;37.280;-121.948;2024-03-25T07:11:09;97901.09;;;10.81
82636;BMP280;72317;37.280;-121.948;2024-03-25T07:16:10;97861.56;;;10.85
82636;BMP280;72317;37.280;-121.948;2024-03-25T07:21:11;97837.44;;;10.98
82636;BMP280;72317;37.280;-121.948;2024-03-25T07:26:11;97862.84;;;10.93
82636;BMP280;72317;37.280;-121.948;2024-03-25T07:31:12;97891.13;;;10.81
82636;BMP280;72317;37.280;-121.948;2024-03-25T07:36:13;97901.53;;;10.79
82636;BMP280;72317;37.280;-121.948;2024-03-25T07:41:14;98000.44;;;10.57
82636;BMP280;72317;37.280;-121.948;2024-03-25T07:46:14;98036.75;;;10.58
82636;BMP280;72317;37.280;-121.948;2024-03-25T07:51:15;98124.19;;;10.49
82636;BMP280;72317;37.280;-121.948;2024-03-25T07:56:16;98188.25;;;10.40
82636;BMP280;72317;37.280;-121.948;2024-03-25T08:01:17;98290.59;;;10.27
82636;BMP280;72317;37.280;-121.948;2024-03-25T08:06:17;98389.34;;;10.02
82636;BMP280;72317;37.280;-121.948;2024-03-25T08:11:18;98456.47;;;10.08
82636;BMP280;72317;37.280;-121.948;2024-03-25T08:16:19;98418.75;;;10.42
82636;BMP280;72317;37.280;-121.948;2024-03-25T08:21:20;98342.03;;;10.55
82636;BMP280;72317;37.280;-121.948;2024-03-25T08:26:20;98259.38;;;10.73
82636;BMP280;72317;37.280;-121.948;2024-03-25T08:31:21;98249.50;;;10.70
82636;BMP280;72317;37.280;-121.948;2024-03-25T08:36:22;98277.44;;;10.69
82636;BMP280;72317;37.280;-121.948;2024-03-25T08:41:23;98272.16;;;10.82
82636;BMP280;72317;37.280;-121.948;2024-03-25T08:46:24;98219.16;;;10.89
82636;BMP280;72317;37.280;-121.948;2024-03-25T08:51:24;98244.38;;;10.92
82636;BMP280;72317;37.280;-121.948;2024-03-25T08:56:25;98283.22;;;11.00
82636;BMP280;72317;37.280;-121.948;2024-03-25T09:01:26;98265.03;;;11.08
82636;BMP280;72317;37.280;-121.948;2024-03-25T09:06:27;98257.16;;;11.17
82636;BMP280;72317;37.280;-121.948;2024-03-25T09:11:28;98210.53;;;11.14
82636;BMP280;72317;37.280;-121.948;2024-03-25T09:16:29;98326.03;;;11.04
82636;BMP280;72317;37.280;-121.948;2024-03-25T09:21:29;98370.72;;;11.23
82636;BMP280;72317;37.280;-121.948;2024-03-25T09:26:30;98371.97;;;11.02
82636;BMP280;72317;37.280;-121.948;2024-03-25T09:31:31;98359.25;;;11.23
82636;BMP280;72317;37.280;-121.948;2024-03-25T09:36:32;98317.88;;;11.24
82636;BMP280;72317;37.280;-121.948;2024-03-25T09:41:35;98318.94;;;11.26
82636;BMP280;72317;37.280;-121.948;2024-03-25T09:46:37;98260.53;;;10.88
82636;BMP280;72317;37.280;-121.948;2024-03-25T09:51:37;98234.75;;;11.11
82636;BMP280;72317;37.280;-121.948;2024-03-25T09:56:39;98284.91;;;10.78
82636;BMP280;72317;37.280;-121.948;2024-03-25T10:01:41;98328.00;;;10.83
82636;BMP280;72317;37.280;-121.948;2024-03-25T10:06:42;98460.91;;;10.77
82636;BMP280;72317;37.280;-121.948;2024-03-25T10:11:42;98522.31;;;10.88
82636;BMP280;72317;37.280;-121.948;2024-03-25T10:16:43;98526.47;;;10.89
82636;BMP280;72317;37.280;-121.948;2024-03-25T10:21:44;98531.31;;;10.78
82636;BMP280;72317;37.280;-121.948;2024-03-25T10:26:48;98466.59;;;10.99
82636;BMP280;72317;37.280;-121.948;2024-03-25T10:31:59;98460.09;;;10.97
82636;BMP280;72317;37.280;-121.948;2024-03-25T10:37:01;98494.00;;;10.87
82636;BMP280;72317;37.280;-121.948;2024-03-25T10:42:05;98409.22;;;11.13
82636;BMP280;72317;37.280;-121.948;2024-03-25T10:47:08;98387.56;;;11.24
82636;BMP280;72317;37.280;-121.948;2024-03-25T10:52:11;98295.47;;;11.30
82636;BMP280;72317;37.280;-121.948;2024-03-25T10:57:13;98231.16;;;11.30
82636;BMP280;72317;37.280;-121.948;2024-03-25T11:02:14;98193.38;;;11.41
82636;BMP280;72317;37.280;-121.948;2024-03-25T11:07:15;98156.13;;;11.43
82636;BMP280;72317;37.280;-121.948;2024-03-25T11:12:16;98220.34;;;11.34
82636;BMP280;72317;37.280;-121.948;2024-03-25T11:17:17;98284.22;;;11.23
82636;BMP280;72317;37.280;-121.948;2024-03-25T11:22:24;98334.66;;;11.40
82636;BMP280;72317;37.280;-121.948;2024-03-25T11:27:26;98388.53;;;11.30
82636;BMP280;72317;37.280;-121.948;2024-03-25T11:32:27;98387.78;;;11.29
82636;BMP280;72317;37.280;-121.948;2024-03-25T11:37:28;98460.25;;;11.26
82636;BMP280;72317;37.280;-121.948;2024-03-25T11:42:28;98423.91;;;11.25
82636;BMP280;72317;37.280;-121.948;2024-03-25T11:47:30;98386.22;;;11.15
82636;BMP280;72317;37.280;-121.948;2024-03-25T11:52:31;98343.50;;;11.41
82636;BMP280;72317;37.280;-121.948;2024-03-25T11:57:32;98321.03;;;11.35
82636;BMP280;72317;37.280;-121.948;2024-03-25T12:02:33;98361.91;;;11.39
82636;BMP280;72317;37.280;-121.948;2024-03-25T12:07:34;98344.47;;;11.31
82636;BMP280;72317;37.280;-121.948;2024-03-25T12:12:35;98283.63;;;11.44
82636;BMP280;72317;37.280;-121.948;2024-03-25T12:17:36;98274.16;;;11.56
82636;BMP280;72317;37.280;-121.948;2024-03-25T12:22:38;98152.22;;;11.60
82636;BMP280;72317;37.280;-121.948;2024-03-25T12:27:39;98055.69;;;11.60
82636;BMP280;72317;37.280;-121.948;2024-03-25T12:32:42;98077.25;;;11.57
82636;BMP280;72317;37.280;-121.948;2024-03-25T12:37:45;97915.38;;;11.63
82636;BMP280;72317;37.280;-121.948;2024-03-25T12:42:52;97864.75;;;11.65
82636;BMP280;72317;37.280;-121.948;2024-03-25T12:47:53;97828.69;;;11.66
82636;BMP280;72317;37.280;-121.948;2024-03-25T12:52:54;97820.03;;;11.62
82636;BMP280;72317;37.280;-121.948;2024-03-25T12:57:54;97797.03;;;11.74
82636;BMP280;72317;37.280;-121.948;2024-03-25T13:02:55;97809.38;;;11.71
82636;BMP280;72317;37.280;-121.948;2024-03-25T13:07:56;97808.19;;;11.72
82636;BMP280;72317;37.280;-121.948;2024-03-25T13:12:57;97799.72;;;11.74
82636;BMP280;72317;37.280;-121.948;2024-03-25T13:17:58;97806.13;;;11.76
82636;BMP280;72317;37.280;-121.948;2024-03-25T13:22:58;97815.78;;;11.74
82636;BMP280;72317;37.280;-121.948;2024-03-25T13:27:59;97858.19;;;11.66
82636;BMP280;72317;37.280;-121.948;2024-03-25T13:33:00;97834.53;;;11.65
82636;BMP280;72317;37.280;-121.948;2024-03-25T13:38:01;97830.38;;;11.51
82636;BMP280;72317;37.280;-121.948;2024-03-25T13:43:02;97848.91;;;11.45
82636;BMP280;72317;37.280;-121.948;2024-03-25T13:48:02;97852.06;;;11.31
82636;BMP280;72317;37.280;-121.948;2024-03-25T13:53:03;97850.75;;;11.48
82636;BMP280;72317;37.280;-121.948;2024-03-25T13:58:04;97846.06;;;11.40
82636;BMP280;72317;37.280;-121.948;2024-03-25T14:03:05;97846.31;;;11.33
82636;BMP280;72317;37.280;-121.948;2024-03-25T14:08:06;97903.22;;;11.37
82636;BMP280;72317;37.280;-121.948;2024-03-25T14:13:07;97891.81;;;11.45
82636;BMP280;72317;37.280;-121.948;2024-03-25T14:18:07;97879.19;;;11.46
82636;BMP280;72317;37.280;-121.948;2024-03-25T14:23:08;97881.34;;;11.38
82636;BMP280;72317;37.280;-121.948;2024-03-25T14:28:10;97897.31;;;11.42
82636;BMP280;72317;37.280;-121.948;2024-03-25T14:33:11;97895.81;;;11.41
82636;BMP280;72317;37.280;-121.948;2024-03-25T14:38:12;97907.56;;;11.43
82636;BMP280;72317;37.280;-121.948;2024-03-25T14:43:12;97922.25;;;11.51
82636;BMP280;72317;37.280;-121.948;2024-03-25T14:48:13;97970.53;;;11.51
82636;BMP280;72317;37.280;-121.948;2024-03-25T14:53:14;97992.31;;;11.41
82636;BMP280;72317;37.280;-121.948;2024-03-25T14:58:15;97954.19;;;11.59
82636;BMP280;72317;37.280;-121.948;2024-03-25T15:03:15;97890.97;;;11.83
82636;BMP280;72317;37.280;-121.948;2024-03-25T15:08:16;97828.09;;;11.84
82636;BMP280;72317;37.280;-121.948;2024-03-25T15:13:17;97832.88;;;12.11
82636;BMP280;72317;37.280;-121.948;2024-03-25T15:18:18;97803.72;;;12.22
82636;BMP280;72317;37.280;-121.948;2024-03-25T15:23:19;97808.91;;;12.57
82636;BMP280;72317;37.280;-121.948;2024-03-25T15:28:20;97849.63;;;12.55
82636;BMP280;72317;37.280;-121.948;2024-03-25T15:33:20;97960.13;;;12.45
82636;BMP280;72317;37.280;-121.948;2024-03-25T15:38:21;98158.44;;;12.68
82636;BMP280;72317;37.280;-121.948;2024-03-25T15:43:22;98198.88;;;12.99
82636;BMP280;72317;37.280;-121.948;2024-03-25T15:48:23;98237.69;;;13.42
82636;BMP280;72317;37.280;-121.948;2024-03-25T15:53:24;98602.72;;;14.27
82636;BMP280;72317;37.280;-121.948;2024-03-25T15:58:25;98983.84;;;13.08
82636;BMP280;72317;37.280;-121.948;2024-03-25T16:03:26;98983.28;;;13.17
82636;BMP280;72317;37.280;-121.948;2024-03-25T16:08:26;98932.28;;;13.46
82636;BMP280;72317;37.280;-121.948;2024-03-25T16:13:28;98967.34;;;13.42
82636;BMP280;72317;37.280;-121.948;2024-03-25T16:18:29;98977.16;;;13.49
82636;BMP280;72317;37.280;-121.948;2024-03-25T16:23:30;99065.34;;;13.90
82636;BMP280;72317;37.280;-121.948;2024-03-25T16:28:31;99107.72;;;13.89
82636;BMP280;72317;37.280;-121.948;2024-03-25T16:33:32;99345.53;;;14.71
82636;BMP280;72317;37.280;-121.948;2024-03-25T16:38:32;99620.69;;;15.56
82636;BMP280;72317;37.280;-121.948;2024-03-25T16:43:33;99776.19;;;15.54
82636;BMP280;72317;37.280;-121.948;2024-03-25T16:48:34;99857.59;;;14.62
82636;BMP280;72317;37.280;-121.948;2024-03-25T16:53:35;99788.94;;;14.16
82636;BMP280;72317;37.280;-121.948;2024-03-25T16:58:36;99743.16;;;15.06
82636;BMP280;72317;37.280;-121.948;2024-03-25T17:03:36;99897.16;;;15.39
82636;BMP280;72317;37.280;-121.948;2024-03-25T17:08:37;99831.69;;;14.92
82636;BMP280;72317;37.280;-121.948;2024-03-25T17:13:38;99834.50;;;14.85
82636;BMP280;72317;37.280;-121.948;2024-03-25T17:18:39;99918.19;;;15.04
82636;BMP280;72317;37.280;-121.948;2024-03-25T17:23:40;99827.53;;;15.50
82636;BMP280;72317;37.280;-121.948;2024-03-25T17:28:41;99886.75;;;15.81
82636;BMP280;72317;37.280;-121.948;2024-03-25T17:33:42;99959.78;;;15.54
82636;BMP280;72317;37.280;-121.948;2024-03-25T17:38:43;99976.69;;;15.77
82636;BMP280;72317;37.280;-121.948;2024-03-25T17:43:44;99984.56;;;15.68
82636;BMP280;72317;37.280;-121.948;2024-03-25T17:48:44;100041.63;;;14.97
82636;BMP280;72317;37.280;-121.948;2024-03-25T17:53:45;100013.44;;;15.52
82636;BMP280;72317;37.280;-121.948;2024-03-25T17:58:46;100163.63;;;18.16
82636;BMP280;72317;37.280;-121.948;2024-03-25T18:03:47;100464.59;;;18.36
82636;BMP280;72317;37.280;-121.948;2024-03-25T18:08:47;100051.78;;;16.49
82636;BMP280;72317;37.280;-121.948;2024-03-25T18:13:48;99744.88;;;16.57
82636;BMP280;72317;37.280;-121.948;2024-03-25T18:18:49;99622.97;;;15.90
82636;BMP280;72317;37.280;-121.948;2024-03-25T18:23:50;99421.88;;;18.37
82636;BMP280;72317;37.280;-121.948;2024-03-25T18:28:51;99495.31;;;16.95
82636;BMP280;72317;37.280;-121.948;2024-03-25T18:33:51;99945.25;;;20.58
82636;BMP280;72317;37.280;-121.948;2024-03-25T18:38:52;100704.00;;;22.38
82636;BMP280;72317;37.280;-121.948;2024-03-25T18:43:53;100138.00;;;17.88
82636;BMP280;72317;37.280;-121.948;2024-03-25T18:48:54;99963.03;;;17.58
82636;BMP280;72317;37.280;-121.948;2024-03-25T18:53:54;99967.66;;;17.86
82636;BMP280;72317;37.280;-121.948;2024-03-25T18:58:55;100682.94;;;22.16
82636;BMP280;72317;37.280;-121.948;2024-03-25T19:03:56;100334.47;;;19.06
82636;BMP280;72317;37.280;-121.948;2024-03-25T19:08:57;100779.88;;;22.08
82636;BMP280;72317;37.280;-121.948;2024-03-25T19:13:58;100431.28;;;18.68
82636;BMP280;72317;37.280;-121.948;2024-03-25T19:18:58;100633.50;;;21.11
82636;BMP280;72317;37.280;-121.948;2024-03-25T19:23:59;100732.53;;;20.66
82636;BMP280;72317;37.280;-121.948;2024-03-25T19:29:00;100747.63;;;21.09
82636;BMP280;72317;37.280;-121.948;2024-03-25T19:34:01;100560.44;;;19.91
82636;BMP280;72317;37.280;-121.948;2024-03-25T19:39:02;100369.31;;;18.95
82636;BMP280;72317;37.280;-121.948;2024-03-25T19:44:04;100172.66;;;18.25
82636;BMP280;72317;37.280;-121.948;2024-03-25T19:49:04;100020.69;;;18.42
82636;BMP280;72317;37.280;-121.948;2024-03-25T19:54:05;100156.59;;;19.27
82636;BMP280;72317;37.280;-121.948;2024-03-25T19:59:06;100357.09;;;20.08
82636;BMP280;72317;37.280;-121.948;2024-03-25T20:04:07;100161.47;;;18.65
82636;BMP280;72317;37.280;-121.948;2024-03-25T20:09:07;100210.09;;;19.90
82636;BMP280;72317;37.280;-121.948;2024-03-25T20:14:08;100180.81;;;19.59
82636;BMP280;72317;37.280;-121.948;2024-03-25T20:19:10;100155.06;;;19.13
82636;BMP280;72317;37.280;-121.948;2024-03-25T20:24:10;100264.91;;;19.76
82636;BMP280;72317;37.280;-121.948;2024-03-25T20:29:11;100416.34;;;19.50
82636;BMP280;72317;37.280;-121.948;2024-03-25T20:34:12;100484.34;;;19.75
82636;BMP280;72317;37.280;-121.948;2024-03-25T20:39:13;100311.03;;;19.54
82636;BMP280;72317;37.280;-121.948;2024-03-25T20:44:14;100332.78;;;19.54
82636;BMP280;72317;37.280;-121.948;2024-03-25T20:49:14;100266.44;;;19.89
82636;BMP280;72317;37.280;-121.948;2024-03-25T20:54:15;100257.69;;;20.07
82636;BMP280;72317;37.280;-121.948;2024-03-25T20:59:16;100076.63;;;19.28
82636;BMP280;72317;37.280;-121.948;2024-03-25T21:04:17;99950.19;;;18.54
82636;BMP280;72317;37.280;-121.948;2024-03-25T21:09:17;100056.47;;;19.51
82636;BMP280;72317;37.280;-121.948;2024-03-25T21:14:18;100187.34;;;19.49
82636;BMP280;72317;37.280;-121.948;2024-03-25T21:19:19;100045.69;;;19.47
82636;BMP280;72317;37.280;-121.948;2024-03-25T21:24:20;99987.59;;;19.45
82636;BMP280;72317;37.280;-121.948;2024-03-25T21:29:21;100127.75;;;19.30
82636;BMP280;72317;37.280;-121.948;2024-03-25T21:34:22;100134.41;;;19.29
82636;BMP280;72317;37.280;-121.948;2024-03-25T21:39:23;100065.00;;;19.27
82636;BMP280;72317;37.280;-121.948;2024-03-25T21:44:23;100066.09;;;19.05
82636;BMP280;72317;37.280;-121.948;2024-03-25T21:49:24;100145.72;;;19.27
82636;BMP280;72317;37.280;-121.948;2024-03-25T21:54:25;100221.56;;;20.07
82636;BMP280;72317;37.280;-121.948;2024-03-25T21:59:26;100231.06;;;19.89
82636;BMP280;72317;37.280;-121.948;2024-03-25T22:04:26;100270.03;;;19.48
82636;BMP280;72317;37.280;-121.948;2024-03-25T22:09:27;100229.06;;;19.68
82636;BMP280;72317;37.280;-121.948;2024-03-25T22:14:28;100250.38;;;18.90
82636;BMP280;72317;37.280;-121.948;2024-03-25T22:19:29;100246.09;;;19.69
82636;BMP280;72317;37.280;-121.948;2024-03-25T22:24:29;100180.13;;;19.30
82636;BMP280;72317;37.280;-121.948;2024-03-25T22:29:30;100283.72;;;19.70
82636;BMP280;72317;37.280;-121.948;2024-03-25T22:34:31;100315.03;;;18.95
82636;BMP280;72317;37.280;-121.948;2024-03-25T22:39:32;100210.97;;;19.11
82636;BMP280;72317;37.280;-121.948;2024-03-25T22:44:32;100253.47;;;19.30
82636;BMP280;72317;37.280;-121.948;2024-03-25T22:49:33;100287.38;;;19.25
82636;BMP280;72317;37.280;-121.948;2024-03-25T22:54:34;100264.81;;;19.29
82636;BMP280;72317;37.280;-121.948;2024-03-25T22:59:35;100167.53;;;18.85
82636;BMP280;72317;37.280;-121.948;2024-03-25T23:04:36;100249.09;;;18.66
82636;BMP280;72317;37.280;-121.948;2024-03-25T23:09:36;100217.19;;;18.99
82636;BMP280;72317;37.280;-121.948;2024-03-25T23:14:37;100246.28;;;18.40
82636;BMP280;72317;37.280;-121.948;2024-03-25T23:19:38;100266.63;;;18.00
82636;BMP280;72317;37.280;-121.948;2024-03-25T23:24:59;100140.19;;;17.93
82636;BMP280;72317;37.280;-121.948;2024-03-25T23:30:00;100127.72;;;17.95
82636;BMP280;72317;37.280;-121.948;2024-03-25T23:35:01;100115.34;;;18.11
82636;BMP280;72317;37.280;-121.948;2024-03-25T23:40:02;100069.59;;;17.68
82636;BMP280;72317;37.280;-121.948;2024-03-25T23:45:03;100079.59;;;17.54
82636;BMP280;72317;37.280;-121.948;2024-03-25T23:50:06;100070.41;;;17.81
82636;BMP280;72317;37.280;-121.948;2024-03-25T23:55:07;100074.28;;;17.51
